Interlink Nobility — V7GD9 — position and weather

sailwx.info

Track history (hours):
 
Tides and Currents Weather Stations Pressure Air Temp Water Temp Dewpoint Dewpoint Depression Visibility Wind Speed Wind Dir Waves Ship Positions

Interlink Nobility

Last reported at 2018-Apr-12 04:33 UTC. Time now 2018-Apr-25 02:59 UTC.
Position N 37°43' W 123°39'.
Warning: this ship's position is 12 days out of date.

Length 180 m; draft 10 m.

Type: Cargo ship. MMSI: 538005698.

Date/timePositionNaut miles runAvg speedWind from/ knotsBaromVisibWave heightAir tempDewpointWater temp
2018-Apr-12 04:33N 37°43' W 123°39'112.1
2018-Apr-12 04:30N 37°44' W 123°40'612.2
2018-Apr-12 04:00N 37°50' W 123°42'612.1
2018-Apr-12 03:30N 37°55' W 123°44'42910.6
2018-Apr-10 10:54N 45°03' W 124°32'410.3
2018-Apr-10 10:30N 45°06' W 124°31'610.7
2018-Apr-10 09:55N 45°13' W 124°29'410.4
2018-Apr-10 09:30N 45°17' W 124°28'510.6
2018-Apr-10 09:00N 45°22' W 124°27'510.7
2018-Apr-10 08:30N 45°27' W 124°25'510.7
2018-Apr-10 08:00N 45°33' W 124°24'510.7
2018-Apr-10 07:30N 45°38' W 124°22'610.9
2018-Apr-10 07:00N 45°43' W 124°20'511.0
2018-Apr-10 06:30N 45°48' W 124°18'611.4
2018-Apr-10 06:00N 45°54' W 124°16'611.2
2018-Apr-10 05:30N 45°59' W 124°14'611.0
2018-Apr-10 04:57N 46°05' W 124°11'511.0
2018-Apr-10 04:30N 46°10' W 124°09'6 9.9
2018-Apr-10 03:54N 46°15' W 124°05'4 9.3
2018-Apr-10 03:31N 46°15' W 123°60'510.3
2018-Apr-10 03:01N 46°11' W 123°54'5 9.7
2018-Apr-10 02:30N 46°13' W 123°47'611.5
2018-Apr-10 02:00N 46°15' W 123°40'712.9
2018-Apr-10 01:30N 46°16' W 123°31'510.9
2018-Apr-10 01:00N 46°12' W 123°26'611.1
2018-Apr-10 00:30N 46°09' W 123°19'714.2
2018-Apr-10 00:01N 46°11' W 123°10'713.9
2018-Apr-09 23:30N 46°08' W 123°01'611.4
2018-Apr-09 23:00N 46°05' W 122°54'611.1
2018-Apr-09 22:30N 45°60' W 122°51'1020.7
2018-Apr-09 22:00N 45°50' W 122°48'2 4.2
2018-Apr-09 21:30N 45°48' W 122°47'713.2
2018-Apr-09 21:00N 45°41' W 122°47'4 8.4
2018-Apr-09 20:30N 45°37' W 122°47'4 8.3
2018-Apr-09 20:00N 45°34' W 122°43'3 5.4
2018-Apr-09 19:31N 45°32' W 122°41'0 0.7
2018-Apr-09 18:58N 45°32' W 122°40'0 0.0
2018-Apr-09 18:28N 45°32' W 122°40'0 0.0
2018-Apr-09 17:58N 45°32' W 122°40'0 0.0
2018-Apr-09 17:28N 45°32' W 122°40'0 0.0
2018-Apr-09 16:58N 45°32' W 122°40'0 0.0
2018-Apr-09 16:28N 45°32' W 122°40'0 0.0
2018-Apr-09 15:58N 45°32' W 122°40'0 0.0
2018-Apr-09 15:28N 45°32' W 122°40'0 0.0
2018-Apr-09 14:58N 45°32' W 122°40'0 0.0
2018-Apr-09 14:28N 45°32' W 122°40'0 0.0
2018-Apr-09 13:58N 45°32' W 122°40'0 0.0
2018-Apr-09 13:28N 45°32' W 122°40'0 0.0
2018-Apr-09 12:58N 45°32' W 122°40'0 0.0
2018-Apr-09 12:28N 45°32' W 122°40'0 0.0
2018-Apr-09 11:58N 45°32' W 122°40'0 0.0
2018-Apr-09 11:28N 45°32' W 122°40'0 0.0
2018-Apr-09 10:58N 45°32' W 122°40'0 0.0
2018-Apr-09 10:28N 45°32' W 122°40'0 0.0
2018-Apr-09 10:00N 45°32' W 122°40'0 0.0
2018-Apr-09 09:30N 45°32' W 122°40'0 0.1
2018-Apr-09 09:00N 45°32' W 122°40'0 0.1
2018-Apr-09 08:28N 45°32' W 122°40'0 0.0
2018-Apr-09 07:58N 45°32' W 122°40'0 0.0
2018-Apr-09 07:28N 45°32' W 122°40'0 0.0
2018-Apr-09 06:58N 45°32' W 122°40'0 0.0
2018-Apr-09 06:28N 45°32' W 122°40'0 0.0
2018-Apr-09 05:58N 45°32' W 122°40'0 0.0
2018-Apr-09 05:28N 45°32' W 122°40'0 0.0
2018-Apr-09 04:58N 45°32' W 122°40'0 0.0
2018-Apr-09 04:28N 45°32' W 122°40'0 0.0
2018-Apr-09 03:58N 45°32' W 122°40'0 0.0
2018-Apr-09 03:28N 45°32' W 122°40'0 0.0
2018-Apr-09 02:58N 45°32' W 122°40'0 0.0
2018-Apr-09 02:28N 45°32' W 122°40'0 0.0
2018-Apr-09 01:58N 45°32' W 122°40'0 0.0
2018-Apr-09 01:28N 45°32' W 122°40'0 0.0
2018-Apr-09 00:58N 45°32' W 122°40'0 0.0
2018-Apr-09 00:28N 45°32' W 122°40'0 0.0
2018-Apr-08 23:58N 45°32' W 122°40'0 0.0
2018-Apr-08 23:28N 45°32' W 122°40'0 0.0
2018-Apr-08 22:58N 45°32' W 122°40'0 0.0
2018-Apr-08 22:28N 45°32' W 122°40'0 0.0
2018-Apr-08 21:58N 45°32' W 122°40'0 0.0
2018-Apr-08 21:28N 45°32' W 122°40'0 0.0
2018-Apr-08 20:58N 45°32' W 122°40'0 0.0
2018-Apr-08 20:28N 45°32' W 122°40'0 0.0
2018-Apr-08 19:58N 45°32' W 122°40'0 0.0
2018-Apr-08 19:28N 45°32' W 122°40'0 0.0
2018-Apr-08 18:58N 45°32' W 122°40'0 0.0
2018-Apr-08 18:28N 45°32' W 122°40'0 0.0
2018-Apr-08 17:58N 45°32' W 122°40'0 0.0
2018-Apr-08 17:28N 45°32' W 122°40'0 0.0
2018-Apr-08 16:58N 45°32' W 122°40'0 0.0
2018-Apr-08 16:28N 45°32' W 122°40'0 0.0
2018-Apr-08 15:58N 45°32' W 122°40'0 0.0
2018-Apr-08 15:28N 45°32' W 122°40'0 0.0
2018-Apr-08 14:58N 45°32' W 122°40'0 0.0
2018-Apr-08 14:28N 45°32' W 122°40'0 0.0
2018-Apr-08 13:58N 45°32' W 122°40'0 0.0
2018-Apr-08 13:28N 45°32' W 122°40'0 0.0
2018-Apr-08 12:58N 45°32' W 122°40'0 0.0
2018-Apr-08 12:28N 45°32' W 122°40'0 0.0
2018-Apr-08 11:58N 45°32' W 122°40'0 0.0
2018-Apr-08 11:28N 45°32' W 122°40'0 0.0
2018-Apr-08 10:58N 45°32' W 122°40'0 0.0
2018-Apr-08 10:28N 45°32' W 122°40'0 0.0
2018-Apr-08 09:58N 45°32' W 122°40'0 0.0
2018-Apr-08 09:28N 45°32' W 122°40'0 0.0
2018-Apr-08 08:58N 45°32' W 122°40'0 0.0
2018-Apr-08 08:28N 45°32' W 122°40'0 0.0
2018-Apr-08 07:58N 45°32' W 122°40'0 0.0
2018-Apr-08 07:28N 45°32' W 122°40'0 0.0
2018-Apr-08 06:58N 45°32' W 122°40'0 0.0
2018-Apr-08 06:28N 45°32' W 122°40'0 0.0
2018-Apr-08 05:58N 45°32' W 122°40'0 0.0
2018-Apr-08 05:28N 45°32' W 122°40'0 0.0
2018-Apr-08 04:58N 45°32' W 122°40'0 0.0
2018-Apr-08 04:28N 45°32' W 122°40'0 0.0
2018-Apr-08 03:59N 45°32' W 122°40'0 0.0
2018-Apr-08 03:28N 45°32' W 122°40'0 0.0
2018-Apr-08 02:58N 45°32' W 122°40'0 0.0
2018-Apr-08 02:28N 45°32' W 122°40'0 0.0
2018-Apr-08 01:58N 45°32' W 122°40'0 0.0
2018-Apr-08 01:28N 45°32' W 122°40'0 0.0
2018-Apr-08 00:58N 45°32' W 122°40'0 0.0
2018-Apr-08 00:28N 45°32' W 122°40'0 0.0
2018-Apr-07 23:58N 45°32' W 122°40'0 0.0
2018-Apr-07 23:28N 45°32' W 122°40'0 0.0
2018-Apr-07 22:58N 45°32' W 122°40'0 0.0
2018-Apr-07 22:28N 45°32' W 122°40'0 0.0
2018-Apr-07 21:58N 45°32' W 122°40'0 0.0
2018-Apr-07 21:28N 45°32' W 122°40'0 0.0
2018-Apr-07 20:58N 45°32' W 122°40'0 0.0
2018-Apr-07 20:28N 45°32' W 122°40'0 0.0
2018-Apr-07 19:58N 45°32' W 122°40'0 0.0
2018-Apr-07 19:28N 45°32' W 122°40'0 0.0
2018-Apr-07 18:58N 45°32' W 122°40'0 0.0
2018-Apr-07 18:28N 45°32' W 122°40'0 0.0
2018-Apr-07 17:58N 45°32' W 122°40'0 0.0
2018-Apr-07 17:28N 45°32' W 122°40'0 0.0
2018-Apr-07 16:58N 45°32' W 122°40'0 0.0
2018-Apr-07 16:28N 45°32' W 122°40'0 0.0
2018-Apr-07 15:58N 45°32' W 122°40'0 0.0
2018-Apr-07 15:28N 45°32' W 122°40'0 0.0
2018-Apr-07 14:58N 45°32' W 122°40'0 0.0
2018-Apr-07 14:28N 45°32' W 122°40'0 0.0
2018-Apr-07 13:58N 45°32' W 122°40'0 0.0
2018-Apr-07 13:28N 45°32' W 122°40'0 0.0
2018-Apr-07 12:58N 45°32' W 122°40'0 0.0
2018-Apr-07 12:28N 45°32' W 122°40'0 0.0
2018-Apr-07 11:58N 45°32' W 122°40'0 0.0
2018-Apr-07 11:28N 45°32' W 122°40'0 0.0
2018-Apr-07 10:58N 45°32' W 122°40'0 0.0
2018-Apr-07 10:28N 45°32' W 122°40'0 0.0
2018-Apr-07 09:58N 45°32' W 122°40'0 0.0
2018-Apr-07 09:28N 45°32' W 122°40'0 0.0
2018-Apr-07 08:58N 45°32' W 122°40'0 0.0
2018-Apr-07 08:28N 45°32' W 122°40'0 0.0
2018-Apr-07 07:58N 45°32' W 122°40'0 0.0
2018-Apr-07 07:28N 45°32' W 122°40'0 0.0
2018-Apr-07 06:58N 45°32' W 122°40'0 0.0
2018-Apr-07 06:28N 45°32' W 122°40'0 0.0
2018-Apr-07 05:58N 45°32' W 122°40'0 0.0
2018-Apr-07 05:28N 45°32' W 122°40'0 0.0
2018-Apr-07 04:58N 45°32' W 122°40'0 0.0
2018-Apr-07 04:28N 45°32' W 122°40'0 0.0
2018-Apr-07 03:58N 45°32' W 122°40'0 0.0
2018-Apr-07 03:28N 45°32' W 122°40'0 0.0
2018-Apr-07 02:58N 45°32' W 122°40'0 0.0
2018-Apr-07 02:28N 45°32' W 122°40'0 0.0
2018-Apr-07 01:59N 45°32' W 122°40'0 0.0
2018-Apr-07 01:28N 45°32' W 122°40'0 0.0
2018-Apr-07 00:58N 45°32' W 122°40'0 0.0
2018-Apr-07 00:28N 45°32' W 122°40'0 0.0
2018-Apr-06 23:58N 45°32' W 122°40'0 0.0
2018-Apr-06 23:28N 45°32' W 122°40'0 0.0
2018-Apr-06 22:58N 45°32' W 122°40'0 0.0
2018-Apr-06 22:28N 45°32' W 122°40'0 0.0
2018-Apr-06 21:58N 45°32' W 122°40'0 0.0
2018-Apr-06 21:28N 45°32' W 122°40'0 0.0
2018-Apr-06 20:58N 45°32' W 122°40'0 0.0
2018-Apr-06 20:28N 45°32' W 122°40'0 0.0
2018-Apr-06 19:58N 45°32' W 122°40'0 0.0
2018-Apr-06 19:28N 45°32' W 122°40'0 0.0
2018-Apr-06 18:58N 45°32' W 122°40'0 0.0
2018-Apr-06 18:28N 45°32' W 122°40'0 0.0
2018-Apr-06 17:58N 45°32' W 122°40'0 0.0
2018-Apr-06 17:28N 45°32' W 122°40'0 0.0
2018-Apr-06 16:58N 45°32' W 122°40'0 0.0
2018-Apr-06 16:28N 45°32' W 122°40'0 0.0
2018-Apr-06 15:58N 45°32' W 122°40'0 0.0
2018-Apr-06 15:28N 45°32' W 122°40'0 0.0
2018-Apr-06 14:58N 45°32' W 122°40'0 0.0
2018-Apr-06 14:28N 45°32' W 122°40'0 0.0
2018-Apr-06 13:58N 45°32' W 122°40'0 0.0
2018-Apr-06 13:28N 45°32' W 122°40'0 0.0
2018-Apr-06 12:58N 45°32' W 122°40'0 0.0
2018-Apr-06 12:28N 45°32' W 122°40'0 0.0
2018-Apr-06 11:58N 45°32' W 122°40'0 0.0
2018-Apr-06 11:28N 45°32' W 122°40'0 0.0
2018-Apr-06 10:58N 45°32' W 122°40'0 0.0
2018-Apr-06 10:28N 45°32' W 122°40'0 0.0
2018-Apr-06 09:58N 45°32' W 122°40'0 0.0
2018-Apr-06 09:28N 45°32' W 122°40'0 0.0
2018-Apr-06 08:58N 45°32' W 122°40'0 0.0
2018-Apr-06 08:28N 45°32' W 122°40'0 0.0
2018-Apr-06 07:58N 45°32' W 122°40'0 0.0
2018-Apr-06 07:28N 45°32' W 122°40'0 0.0
2018-Apr-06 06:58N 45°32' W 122°40'0 0.0
2018-Apr-06 06:28N 45°32' W 122°40'0 0.0
2018-Apr-06 05:58N 45°32' W 122°40'0 0.0
2018-Apr-06 05:28N 45°32' W 122°40'0 0.0
2018-Apr-06 04:58N 45°32' W 122°40'0 0.0
2018-Apr-06 04:28N 45°32' W 122°40'0 0.0
2018-Apr-06 03:58N 45°32' W 122°40'0 0.0
2018-Apr-06 03:28N 45°32' W 122°40'0 0.0
2018-Apr-06 02:58N 45°32' W 122°40'0 0.0
2018-Apr-06 02:28N 45°32' W 122°40'0 0.0
2018-Apr-06 01:58N 45°32' W 122°40'0 0.0
2018-Apr-06 01:28N 45°32' W 122°40'0 0.0
2018-Apr-06 00:58N 45°32' W 122°40'0 0.0
2018-Apr-06 00:28N 45°32' W 122°40'0 0.0
2018-Apr-05 23:58N 45°32' W 122°40'0 0.0
2018-Apr-05 23:28N 45°32' W 122°40'0 0.0
2018-Apr-05 22:58N 45°32' W 122°40'0 0.0
2018-Apr-05 22:28N 45°32' W 122°40'0 0.0
2018-Apr-05 21:58N 45°32' W 122°40'0 0.0
2018-Apr-05 21:28N 45°32' W 122°40'0 0.0
2018-Apr-05 20:58N 45°32' W 122°40'0 0.0
2018-Apr-05 20:28N 45°32' W 122°40'0 0.0
2018-Apr-05 19:58N 45°32' W 122°40'0 0.0
2018-Apr-05 19:28N 45°32' W 122°40'0 0.0
2018-Apr-05 18:58N 45°32' W 122°40'0 0.0
2018-Apr-05 18:28N 45°32' W 122°40'0 0.0
2018-Apr-05 17:58N 45°32' W 122°40'0 0.0
2018-Apr-05 17:28N 45°32' W 122°40'0 0.0
2018-Apr-05 16:58N 45°32' W 122°40'0 0.0
2018-Apr-05 16:28N 45°32' W 122°40'0 0.0
2018-Apr-05 15:58N 45°32' W 122°40'0 0.0
2018-Apr-05 15:28N 45°32' W 122°40'0 0.0
2018-Apr-05 14:58N 45°32' W 122°40'0 0.0
2018-Apr-05 14:28N 45°32' W 122°40'0 0.0
2018-Apr-05 13:58N 45°32' W 122°40'0 0.0
2018-Apr-05 13:28N 45°32' W 122°40'0 0.0
2018-Apr-05 12:58N 45°32' W 122°40'0 0.0
2018-Apr-05 12:28N 45°32' W 122°40'0 0.0
2018-Apr-05 11:58N 45°32' W 122°40'0 0.0
2018-Apr-05 11:28N 45°32' W 122°40'0 0.0
2018-Apr-05 10:58N 45°32' W 122°40'0 0.0
2018-Apr-05 10:28N 45°32' W 122°40'0 0.0
2018-Apr-05 09:58N 45°32' W 122°40'0 0.0
2018-Apr-05 09:28N 45°32' W 122°40'0 0.0
2018-Apr-05 08:58N 45°32' W 122°40'0 0.0
2018-Apr-05 08:28N 45°32' W 122°40'0 0.0
2018-Apr-05 07:58N 45°32' W 122°40'0 0.0
2018-Apr-05 07:28N 45°32' W 122°40'0 0.0
2018-Apr-05 06:58N 45°32' W 122°40'0 0.0
2018-Apr-05 06:28N 45°32' W 122°40'0 0.0
2018-Apr-05 05:58N 45°32' W 122°40'0 0.0
2018-Apr-05 05:28N 45°32' W 122°40'0 0.0
2018-Apr-05 04:58N 45°32' W 122°40'0 0.0
2018-Apr-05 04:28N 45°32' W 122°40'0 0.0
2018-Apr-05 03:58N 45°32' W 122°40'0 0.0
2018-Apr-05 03:22N 45°32' W 122°40'0 0.0
2018-Apr-05 02:58N 45°32' W 122°40'0 0.0
2018-Apr-05 02:28N 45°32' W 122°40'0 0.0
2018-Apr-05 01:58N 45°32' W 122°40'0 0.0
2018-Apr-05 01:28N 45°32' W 122°40'0 0.0
2018-Apr-05 00:58N 45°32' W 122°40'0 0.0
2018-Apr-05 00:28N 45°32' W 122°40'0 0.0
2018-Apr-04 23:58N 45°32' W 122°40'0 0.0
2018-Apr-04 23:28N 45°32' W 122°40'0 0.0
2018-Apr-04 22:58N 45°32' W 122°40'0 0.0
2018-Apr-04 22:28N 45°32' W 122°40'0 0.0
2018-Apr-04 21:58N 45°32' W 122°40'0 0.0
2018-Apr-04 21:28N 45°32' W 122°40'0 0.0
2018-Apr-04 20:58N 45°32' W 122°40'0 0.0
2018-Apr-04 20:28N 45°32' W 122°40'0 0.0
2018-Apr-04 19:58N 45°32' W 122°40'0 0.0
2018-Apr-04 19:28N 45°32' W 122°40'0 0.0
2018-Apr-04 18:58N 45°32' W 122°40'0 0.0
2018-Apr-04 18:28N 45°32' W 122°40'0 0.0
2018-Apr-04 17:58N 45°32' W 122°40'0 0.0
2018-Apr-04 17:28N 45°32' W 122°40'0 0.0
2018-Apr-04 16:58N 45°32' W 122°40'0 0.0
2018-Apr-04 16:28N 45°32' W 122°40'0 0.0
2018-Apr-04 15:58N 45°32' W 122°40'0 0.0
2018-Apr-04 15:28N 45°32' W 122°40'0 0.0
2018-Apr-04 14:58N 45°32' W 122°40'0 0.0
2018-Apr-04 14:28N 45°32' W 122°40'0 0.0
2018-Apr-04 13:58N 45°32' W 122°40'0 0.0
2018-Apr-04 13:28N 45°32' W 122°40'0 0.0
2018-Apr-04 12:58N 45°32' W 122°40'0 0.0
2018-Apr-04 12:28N 45°32' W 122°40'0 0.0
2018-Apr-04 11:58N 45°32' W 122°40'0 0.0
2018-Apr-04 11:28N 45°32' W 122°40'0 0.0
2018-Apr-04 10:58N 45°32' W 122°40'0 0.0
2018-Apr-04 10:28N 45°32' W 122°40'0 0.0
2018-Apr-04 09:58N 45°32' W 122°40'0 0.0
2018-Apr-04 09:28N 45°32' W 122°40'0 0.0
2018-Apr-04 08:58N 45°32' W 122°40'0 0.0
2018-Apr-04 08:28N 45°32' W 122°40'0 0.0
2018-Apr-04 07:58N 45°32' W 122°40'0 0.0
2018-Apr-04 07:28N 45°32' W 122°40'0 0.0
2018-Apr-04 06:58N 45°32' W 122°40'0 0.0
2018-Apr-04 06:28N 45°32' W 122°40'0 0.0
2018-Apr-04 05:58N 45°32' W 122°40'0 0.0
2018-Apr-04 05:28N 45°32' W 122°40'0 0.0
2018-Apr-04 04:58N 45°32' W 122°40'0 0.0
2018-Apr-04 04:28N 45°32' W 122°40'0 0.0
2018-Apr-04 03:58N 45°32' W 122°40'0 0.0
2018-Apr-04 03:28N 45°32' W 122°40'0 0.0
2018-Apr-04 02:58N 45°32' W 122°40'0 0.0
2018-Apr-04 02:28N 45°32' W 122°40'0 0.0
2018-Apr-04 01:57N 45°32' W 122°40'0 0.0
2018-Apr-04 01:28N 45°32' W 122°40'0 0.0
2018-Apr-04 00:58N 45°32' W 122°40'0 0.0
2018-Apr-04 00:28N 45°32' W 122°40'0 0.0
2018-Apr-03 23:58N 45°32' W 122°40'0 0.0
2018-Apr-03 23:28N 45°32' W 122°40'0 0.0
2018-Apr-03 23:01N 45°32' W 122°40'0 0.0
2018-Apr-03 22:28N 45°32' W 122°40'0 0.0
2018-Apr-03 22:01N 45°32' W 122°40'0 0.0
2018-Apr-03 21:28N 45°32' W 122°40'0 0.0
2018-Apr-03 20:58N 45°32' W 122°40'0 0.0
2018-Apr-03 20:28N 45°32' W 122°40'0 0.0
2018-Apr-03 19:57N 45°32' W 122°40'0 0.0
2018-Apr-03 19:28N 45°32' W 122°40'0 0.0
2018-Apr-03 18:58N 45°32' W 122°40'0 0.0
2018-Apr-03 18:28N 45°32' W 122°40'0 0.0
2018-Apr-03 17:58N 45°32' W 122°40'0 0.0
2018-Apr-03 17:28N 45°32' W 122°40'0 0.0
2018-Apr-03 16:57N 45°32' W 122°40'0 0.0
2018-Apr-03 16:27N 45°32' W 122°40'0 0.0
2018-Apr-03 16:01N 45°32' W 122°40'0 0.0
2018-Apr-03 15:27N 45°32' W 122°40'0 0.0
2018-Apr-03 14:57N 45°32' W 122°40'0 0.0
2018-Apr-03 14:28N 45°32' W 122°40'0 0.0
2018-Apr-03 13:58N 45°32' W 122°40'0 0.0
2018-Apr-03 13:30N 45°32' W 122°40'0 0.0
2018-Apr-03 12:58N 45°32' W 122°40'0 0.0
2018-Apr-03 12:31N 45°32' W 122°40'0 0.0
2018-Apr-03 12:01N 45°32' W 122°40'0 0.0
2018-Apr-03 11:27N 45°32' W 122°40'0 0.0
2018-Apr-03 10:57N 45°32' W 122°40'0 0.0
2018-Apr-03 10:27N 45°32' W 122°40'0 0.0
2018-Apr-03 09:58N 45°32' W 122°40'0 0.0
2018-Apr-03 09:27N 45°32' W 122°40'0 0.0
2018-Apr-03 08:59N 45°32' W 122°40'0 0.0
2018-Apr-03 08:28N 45°32' W 122°40'0 0.0
2018-Apr-03 07:58N 45°32' W 122°40'0 0.0
2018-Apr-03 07:28N 45°32' W 122°40'0 0.0
2018-Apr-03 06:58N 45°32' W 122°40'0 0.0
2018-Apr-03 06:27N 45°32' W 122°40'0 0.0
2018-Apr-03 05:58N 45°32' W 122°40'0 0.0
2018-Apr-03 05:30N 45°32' W 122°40'0 0.0
2018-Apr-03 05:00N 45°32' W 122°40'0 0.0
2018-Apr-03 04:27N 45°32' W 122°40'0 0.0
2018-Apr-03 04:01N 45°32' W 122°40'0 0.0
2018-Apr-03 03:27N 45°32' W 122°40'0 0.0
2018-Apr-03 02:57N 45°32' W 122°40'0 0.0
2018-Apr-03 02:27N 45°32' W 122°40'0 0.0
2018-Apr-03 02:00N 45°32' W 122°40'0 0.0
2018-Apr-03 01:27N 45°32' W 122°40'0 0.0
2018-Apr-03 01:01N 45°32' W 122°40'0 0.0
2018-Apr-03 00:30N 45°32' W 122°40'0 0.0
2018-Apr-03 00:00N 45°32' W 122°40'0 0.0
2018-Apr-02 23:28N 45°32' W 122°40'0 0.0
2018-Apr-02 22:57N 45°32' W 122°40'0 0.0
2018-Apr-02 22:27N 45°32' W 122°40'0 0.0
2018-Apr-02 22:01N 45°32' W 122°40'0 0.0
2018-Apr-02 21:30N 45°32' W 122°40'0 0.0
2018-Apr-02 20:57N 45°32' W 122°40'0 0.0
2018-Apr-02 20:27N 45°32' W 122°40'0 0.0
2018-Apr-02 20:00N 45°32' W 122°40'0 0.0
2018-Apr-02 19:30N 45°32' W 122°40'0 0.0
2018-Apr-02 18:57N 45°32' W 122°40'0 0.0
2018-Apr-02 18:31N 45°32' W 122°40'0 0.0
2018-Apr-02 17:57N 45°32' W 122°40'0 0.0
2018-Apr-02 17:27N 45°32' W 122°40'0 0.0
2018-Apr-02 16:57N 45°32' W 122°40'0 0.0
2018-Apr-02 16:30N 45°32' W 122°40'0 0.0
2018-Apr-02 15:57N 45°32' W 122°40'0 0.0
2018-Apr-02 15:30N 45°32' W 122°40'0 0.0
2018-Apr-02 15:01N 45°32' W 122°40'0 0.0
2018-Apr-02 14:27N 45°32' W 122°40'0 0.0
2018-Apr-02 13:57N 45°32' W 122°40'0 0.0
2018-Apr-02 13:31N 45°32' W 122°40'0 0.0
2018-Apr-02 12:57N 45°32' W 122°40'0 0.0
2018-Apr-02 12:30N 45°32' W 122°40'2 3.2
2018-Apr-02 12:01N 45°33' W 122°42'4 7.1
2018-Apr-02 11:30N 45°35' W 122°46'3 6.9
2018-Apr-02 11:00N 45°38' W 122°47'5 9.3
2018-Apr-02 10:30N 45°43' W 122°46'611.4
2018-Apr-02 10:01N 45°49' W 122°48'510.7
2018-Apr-02 09:30N 45°54' W 122°48'510.6
2018-Apr-02 09:00N 45°59' W 122°51'510.8
2018-Apr-02 08:30N 46°04' W 122°53'510.2
2018-Apr-02 08:00N 46°07' W 122°59'511.0
2018-Apr-02 07:30N 46°10' W 123°06'510.0
2018-Apr-02 07:00N 46°10' W 123°13'610.5
2018-Apr-02 06:24N 46°09' W 123°22'4 9.9
2018-Apr-02 06:01N 46°11' W 123°26'510.2
2018-Apr-02 05:31N 46°16' W 123°28'511.0
2018-Apr-02 05:01N 46°15' W 123°36'  
Track history (hours):
 
Tides and Currents Weather Stations Pressure Air Temp Water Temp Dewpoint Dewpoint Depression Visibility Wind Speed Wind Dir Waves Ship Positions

Interlink Nobility

Last reported at 2018-Apr-12 04:33 UTC. Time now 2018-Apr-25 02:59 UTC.
Position N 37°43' W 123°39'.
Warning: this ship's position is 12 days out of date.

Length 180 m; draft 10 m.

Type: Cargo ship. MMSI: 538005698.

Date/timePositionNaut miles runAvg speedWind from/ knotsBaromVisibWave heightAir tempDewpointWater temp
2018-Apr-12 04:33N 37°43' W 123°39'112.1
2018-Apr-12 04:30N 37°44' W 123°40'612.2
2018-Apr-12 04:00N 37°50' W 123°42'612.1
2018-Apr-12 03:30N 37°55' W 123°44'42910.6
2018-Apr-10 10:54N 45°03' W 124°32'410.3
2018-Apr-10 10:30N 45°06' W 124°31'610.7
2018-Apr-10 09:55N 45°13' W 124°29'410.4
2018-Apr-10 09:30N 45°17' W 124°28'510.6
2018-Apr-10 09:00N 45°22' W 124°27'510.7
2018-Apr-10 08:30N 45°27' W 124°25'510.7
2018-Apr-10 08:00N 45°33' W 124°24'510.7
2018-Apr-10 07:30N 45°38' W 124°22'610.9
2018-Apr-10 07:00N 45°43' W 124°20'511.0
2018-Apr-10 06:30N 45°48' W 124°18'611.4
2018-Apr-10 06:00N 45°54' W 124°16'611.2
2018-Apr-10 05:30N 45°59' W 124°14'611.0
2018-Apr-10 04:57N 46°05' W 124°11'511.0
2018-Apr-10 04:30N 46°10' W 124°09'6 9.9
2018-Apr-10 03:54N 46°15' W 124°05'4 9.3
2018-Apr-10 03:31N 46°15' W 123°60'510.3
2018-Apr-10 03:01N 46°11' W 123°54'5 9.7
2018-Apr-10 02:30N 46°13' W 123°47'611.5
2018-Apr-10 02:00N 46°15' W 123°40'712.9
2018-Apr-10 01:30N 46°16' W 123°31'510.9
2018-Apr-10 01:00N 46°12' W 123°26'611.1
2018-Apr-10 00:30N 46°09' W 123°19'714.2
2018-Apr-10 00:01N 46°11' W 123°10'713.9
2018-Apr-09 23:30N 46°08' W 123°01'611.4
2018-Apr-09 23:00N 46°05' W 122°54'611.1
2018-Apr-09 22:30N 45°60' W 122°51'1020.7
2018-Apr-09 22:00N 45°50' W 122°48'2 4.2
2018-Apr-09 21:30N 45°48' W 122°47'713.2
2018-Apr-09 21:00N 45°41' W 122°47'4 8.4
2018-Apr-09 20:30N 45°37' W 122°47'4 8.3
2018-Apr-09 20:00N 45°34' W 122°43'3 5.4
2018-Apr-09 19:31N 45°32' W 122°41'0 0.7
2018-Apr-09 18:58N 45°32' W 122°40'0 0.0
2018-Apr-09 18:28N 45°32' W 122°40'0 0.0
2018-Apr-09 17:58N 45°32' W 122°40'0 0.0
2018-Apr-09 17:28N 45°32' W 122°40'0 0.0
2018-Apr-09 16:58N 45°32' W 122°40'0 0.0
2018-Apr-09 16:28N 45°32' W 122°40'0 0.0
2018-Apr-09 15:58N 45°32' W 122°40'0 0.0
2018-Apr-09 15:28N 45°32' W 122°40'0 0.0
2018-Apr-09 14:58N 45°32' W 122°40'0 0.0
2018-Apr-09 14:28N 45°32' W 122°40'0 0.0
2018-Apr-09 13:58N 45°32' W 122°40'0 0.0
2018-Apr-09 13:28N 45°32' W 122°40'0 0.0
2018-Apr-09 12:58N 45°32' W 122°40'0 0.0
2018-Apr-09 12:28N 45°32' W 122°40'0 0.0
2018-Apr-09 11:58N 45°32' W 122°40'0 0.0
2018-Apr-09 11:28N 45°32' W 122°40'0 0.0
2018-Apr-09 10:58N 45°32' W 122°40'0 0.0
2018-Apr-09 10:28N 45°32' W 122°40'0 0.0
2018-Apr-09 10:00N 45°32' W 122°40'0 0.0
2018-Apr-09 09:30N 45°32' W 122°40'0 0.1
2018-Apr-09 09:00N 45°32' W 122°40'0 0.1
2018-Apr-09 08:28N 45°32' W 122°40'0 0.0
2018-Apr-09 07:58N 45°32' W 122°40'0 0.0
2018-Apr-09 07:28N 45°32' W 122°40'0 0.0
2018-Apr-09 06:58N 45°32' W 122°40'0 0.0
2018-Apr-09 06:28N 45°32' W 122°40'0 0.0
2018-Apr-09 05:58N 45°32' W 122°40'0 0.0
2018-Apr-09 05:28N 45°32' W 122°40'0 0.0
2018-Apr-09 04:58N 45°32' W 122°40'0 0.0
2018-Apr-09 04:28N 45°32' W 122°40'0 0.0
2018-Apr-09 03:58N 45°32' W 122°40'0 0.0
2018-Apr-09 03:28N 45°32' W 122°40'0 0.0
2018-Apr-09 02:58N 45°32' W 122°40'0 0.0
2018-Apr-09 02:28N 45°32' W 122°40'0 0.0
2018-Apr-09 01:58N 45°32' W 122°40'0 0.0
2018-Apr-09 01:28N 45°32' W 122°40'0 0.0
2018-Apr-09 00:58N 45°32' W 122°40'0 0.0
2018-Apr-09 00:28N 45°32' W 122°40'0 0.0
2018-Apr-08 23:58N 45°32' W 122°40'0 0.0
2018-Apr-08 23:28N 45°32' W 122°40'0 0.0
2018-Apr-08 22:58N 45°32' W 122°40'0 0.0
2018-Apr-08 22:28N 45°32' W 122°40'0 0.0
2018-Apr-08 21:58N 45°32' W 122°40'0 0.0
2018-Apr-08 21:28N 45°32' W 122°40'0 0.0
2018-Apr-08 20:58N 45°32' W 122°40'0 0.0
2018-Apr-08 20:28N 45°32' W 122°40'0 0.0
2018-Apr-08 19:58N 45°32' W 122°40'0 0.0
2018-Apr-08 19:28N 45°32' W 122°40'0 0.0
2018-Apr-08 18:58N 45°32' W 122°40'0 0.0
2018-Apr-08 18:28N 45°32' W 122°40'0 0.0
2018-Apr-08 17:58N 45°32' W 122°40'0 0.0
2018-Apr-08 17:28N 45°32' W 122°40'0 0.0
2018-Apr-08 16:58N 45°32' W 122°40'0 0.0
2018-Apr-08 16:28N 45°32' W 122°40'0 0.0
2018-Apr-08 15:58N 45°32' W 122°40'0 0.0
2018-Apr-08 15:28N 45°32' W 122°40'0 0.0
2018-Apr-08 14:58N 45°32' W 122°40'0 0.0
2018-Apr-08 14:28N 45°32' W 122°40'0 0.0
2018-Apr-08 13:58N 45°32' W 122°40'0 0.0
2018-Apr-08 13:28N 45°32' W 122°40'0 0.0
2018-Apr-08 12:58N 45°32' W 122°40'0 0.0
2018-Apr-08 12:28N 45°32' W 122°40'0 0.0
2018-Apr-08 11:58N 45°32' W 122°40'0 0.0
2018-Apr-08 11:28N 45°32' W 122°40'0 0.0
2018-Apr-08 10:58N 45°32' W 122°40'0 0.0
2018-Apr-08 10:28N 45°32' W 122°40'0 0.0
2018-Apr-08 09:58N 45°32' W 122°40'0 0.0
2018-Apr-08 09:28N 45°32' W 122°40'0 0.0
2018-Apr-08 08:58N 45°32' W 122°40'0 0.0
2018-Apr-08 08:28N 45°32' W 122°40'0 0.0
2018-Apr-08 07:58N 45°32' W 122°40'0 0.0
2018-Apr-08 07:28N 45°32' W 122°40'0 0.0
2018-Apr-08 06:58N 45°32' W 122°40'0 0.0
2018-Apr-08 06:28N 45°32' W 122°40'0 0.0
2018-Apr-08 05:58N 45°32' W 122°40'0 0.0
2018-Apr-08 05:28N 45°32' W 122°40'0 0.0
2018-Apr-08 04:58N 45°32' W 122°40'0 0.0
2018-Apr-08 04:28N 45°32' W 122°40'0 0.0
2018-Apr-08 03:59N 45°32' W 122°40'0 0.0
2018-Apr-08 03:28N 45°32' W 122°40'0 0.0
2018-Apr-08 02:58N 45°32' W 122°40'0 0.0
2018-Apr-08 02:28N 45°32' W 122°40'0 0.0
2018-Apr-08 01:58N 45°32' W 122°40'0 0.0
2018-Apr-08 01:28N 45°32' W 122°40'0 0.0
2018-Apr-08 00:58N 45°32' W 122°40'0 0.0
2018-Apr-08 00:28N 45°32' W 122°40'0 0.0
2018-Apr-07 23:58N 45°32' W 122°40'0 0.0
2018-Apr-07 23:28N 45°32' W 122°40'0 0.0
2018-Apr-07 22:58N 45°32' W 122°40'0 0.0
2018-Apr-07 22:28N 45°32' W 122°40'0 0.0
2018-Apr-07 21:58N 45°32' W 122°40'0 0.0
2018-Apr-07 21:28N 45°32' W 122°40'0 0.0
2018-Apr-07 20:58N 45°32' W 122°40'0 0.0
2018-Apr-07 20:28N 45°32' W 122°40'0 0.0
2018-Apr-07 19:58N 45°32' W 122°40'0 0.0
2018-Apr-07 19:28N 45°32' W 122°40'0 0.0
2018-Apr-07 18:58N 45°32' W 122°40'0 0.0
2018-Apr-07 18:28N 45°32' W 122°40'0 0.0
2018-Apr-07 17:58N 45°32' W 122°40'0 0.0
2018-Apr-07 17:28N 45°32' W 122°40'0 0.0
2018-Apr-07 16:58N 45°32' W 122°40'0 0.0
2018-Apr-07 16:28N 45°32' W 122°40'0 0.0
2018-Apr-07 15:58N 45°32' W 122°40'0 0.0
2018-Apr-07 15:28N 45°32' W 122°40'0 0.0
2018-Apr-07 14:58N 45°32' W 122°40'0 0.0
2018-Apr-07 14:28N 45°32' W 122°40'0 0.0
2018-Apr-07 13:58N 45°32' W 122°40'0 0.0
2018-Apr-07 13:28N 45°32' W 122°40'0 0.0
2018-Apr-07 12:58N 45°32' W 122°40'0 0.0
2018-Apr-07 12:28N 45°32' W 122°40'0 0.0
2018-Apr-07 11:58N 45°32' W 122°40'0 0.0
2018-Apr-07 11:28N 45°32' W 122°40'0 0.0
2018-Apr-07 10:58N 45°32' W 122°40'0 0.0
2018-Apr-07 10:28N 45°32' W 122°40'0 0.0
2018-Apr-07 09:58N 45°32' W 122°40'0 0.0
2018-Apr-07 09:28N 45°32' W 122°40'0 0.0
2018-Apr-07 08:58N 45°32' W 122°40'0 0.0
2018-Apr-07 08:28N 45°32' W 122°40'0 0.0
2018-Apr-07 07:58N 45°32' W 122°40'0 0.0
2018-Apr-07 07:28N 45°32' W 122°40'0 0.0
2018-Apr-07 06:58N 45°32' W 122°40'0 0.0
2018-Apr-07 06:28N 45°32' W 122°40'0 0.0
2018-Apr-07 05:58N 45°32' W 122°40'0 0.0
2018-Apr-07 05:28N 45°32' W 122°40'0 0.0
2018-Apr-07 04:58N 45°32' W 122°40'0 0.0
2018-Apr-07 04:28N 45°32' W 122°40'0 0.0
2018-Apr-07 03:58N 45°32' W 122°40'0 0.0
2018-Apr-07 03:28N 45°32' W 122°40'0 0.0
2018-Apr-07 02:58N 45°32' W 122°40'0 0.0
2018-Apr-07 02:28N 45°32' W 122°40'0 0.0
2018-Apr-07 01:59N 45°32' W 122°40'0 0.0
2018-Apr-07 01:28N 45°32' W 122°40'0 0.0
2018-Apr-07 00:58N 45°32' W 122°40'0 0.0
2018-Apr-07 00:28N 45°32' W 122°40'0 0.0
2018-Apr-06 23:58N 45°32' W 122°40'0 0.0
2018-Apr-06 23:28N 45°32' W 122°40'0 0.0
2018-Apr-06 22:58N 45°32' W 122°40'0 0.0
2018-Apr-06 22:28N 45°32' W 122°40'0 0.0
2018-Apr-06 21:58N 45°32' W 122°40'0 0.0
2018-Apr-06 21:28N 45°32' W 122°40'0 0.0
2018-Apr-06 20:58N 45°32' W 122°40'0 0.0
2018-Apr-06 20:28N 45°32' W 122°40'0 0.0
2018-Apr-06 19:58N 45°32' W 122°40'0 0.0
2018-Apr-06 19:28N 45°32' W 122°40'0 0.0
2018-Apr-06 18:58N 45°32' W 122°40'0 0.0
2018-Apr-06 18:28N 45°32' W 122°40'0 0.0
2018-Apr-06 17:58N 45°32' W 122°40'0 0.0
2018-Apr-06 17:28N 45°32' W 122°40'0 0.0
2018-Apr-06 16:58N 45°32' W 122°40'0 0.0
2018-Apr-06 16:28N 45°32' W 122°40'0 0.0
2018-Apr-06 15:58N 45°32' W 122°40'0 0.0
2018-Apr-06 15:28N 45°32' W 122°40'0 0.0
2018-Apr-06 14:58N 45°32' W 122°40'0 0.0
2018-Apr-06 14:28N 45°32' W 122°40'0 0.0
2018-Apr-06 13:58N 45°32' W 122°40'0 0.0
2018-Apr-06 13:28N 45°32' W 122°40'0 0.0
2018-Apr-06 12:58N 45°32' W 122°40'0 0.0
2018-Apr-06 12:28N 45°32' W 122°40'0 0.0
2018-Apr-06 11:58N 45°32' W 122°40'0 0.0
2018-Apr-06 11:28N 45°32' W 122°40'0 0.0
2018-Apr-06 10:58N 45°32' W 122°40'0 0.0
2018-Apr-06 10:28N 45°32' W 122°40'0 0.0
2018-Apr-06 09:58N 45°32' W 122°40'0 0.0
2018-Apr-06 09:28N 45°32' W 122°40'0 0.0
2018-Apr-06 08:58N 45°32' W 122°40'0 0.0
2018-Apr-06 08:28N 45°32' W 122°40'0 0.0
2018-Apr-06 07:58N 45°32' W 122°40'0 0.0
2018-Apr-06 07:28N 45°32' W 122°40'0 0.0
2018-Apr-06 06:58N 45°32' W 122°40'0 0.0
2018-Apr-06 06:28N 45°32' W 122°40'0 0.0
2018-Apr-06 05:58N 45°32' W 122°40'0 0.0
2018-Apr-06 05:28N 45°32' W 122°40'0 0.0
2018-Apr-06 04:58N 45°32' W 122°40'0 0.0
2018-Apr-06 04:28N 45°32' W 122°40'0 0.0
2018-Apr-06 03:58N 45°32' W 122°40'0 0.0
2018-Apr-06 03:28N 45°32' W 122°40'0 0.0
2018-Apr-06 02:58N 45°32' W 122°40'0 0.0
2018-Apr-06 02:28N 45°32' W 122°40'0 0.0
2018-Apr-06 01:58N 45°32' W 122°40'0 0.0
2018-Apr-06 01:28N 45°32' W 122°40'0 0.0
2018-Apr-06 00:58N 45°32' W 122°40'0 0.0
2018-Apr-06 00:28N 45°32' W 122°40'0 0.0
2018-Apr-05 23:58N 45°32' W 122°40'0 0.0
2018-Apr-05 23:28N 45°32' W 122°40'0 0.0
2018-Apr-05 22:58N 45°32' W 122°40'0 0.0
2018-Apr-05 22:28N 45°32' W 122°40'0 0.0
2018-Apr-05 21:58N 45°32' W 122°40'0 0.0
2018-Apr-05 21:28N 45°32' W 122°40'0 0.0
2018-Apr-05 20:58N 45°32' W 122°40'0 0.0
2018-Apr-05 20:28N 45°32' W 122°40'0 0.0
2018-Apr-05 19:58N 45°32' W 122°40'0 0.0
2018-Apr-05 19:28N 45°32' W 122°40'0 0.0
2018-Apr-05 18:58N 45°32' W 122°40'0 0.0
2018-Apr-05 18:28N 45°32' W 122°40'0 0.0
2018-Apr-05 17:58N 45°32' W 122°40'0 0.0
2018-Apr-05 17:28N 45°32' W 122°40'0 0.0
2018-Apr-05 16:58N 45°32' W 122°40'0 0.0
2018-Apr-05 16:28N 45°32' W 122°40'0 0.0
2018-Apr-05 15:58N 45°32' W 122°40'0 0.0
2018-Apr-05 15:28N 45°32' W 122°40'0 0.0
2018-Apr-05 14:58N 45°32' W 122°40'0 0.0
2018-Apr-05 14:28N 45°32' W 122°40'0 0.0
2018-Apr-05 13:58N 45°32' W 122°40'0 0.0
2018-Apr-05 13:28N 45°32' W 122°40'0 0.0
2018-Apr-05 12:58N 45°32' W 122°40'0 0.0
2018-Apr-05 12:28N 45°32' W 122°40'0 0.0
2018-Apr-05 11:58N 45°32' W 122°40'0 0.0
2018-Apr-05 11:28N 45°32' W 122°40'0 0.0
2018-Apr-05 10:58N 45°32' W 122°40'0 0.0
2018-Apr-05 10:28N 45°32' W 122°40'0 0.0
2018-Apr-05 09:58N 45°32' W 122°40'0 0.0
2018-Apr-05 09:28N 45°32' W 122°40'0 0.0
2018-Apr-05 08:58N 45°32' W 122°40'0 0.0
2018-Apr-05 08:28N 45°32' W 122°40'0 0.0
2018-Apr-05 07:58N 45°32' W 122°40'0 0.0
2018-Apr-05 07:28N 45°32' W 122°40'0 0.0
2018-Apr-05 06:58N 45°32' W 122°40'0 0.0
2018-Apr-05 06:28N 45°32' W 122°40'0 0.0
2018-Apr-05 05:58N 45°32' W 122°40'0 0.0
2018-Apr-05 05:28N 45°32' W 122°40'0 0.0
2018-Apr-05 04:58N 45°32' W 122°40'0 0.0
2018-Apr-05 04:28N 45°32' W 122°40'0 0.0
2018-Apr-05 03:58N 45°32' W 122°40'0 0.0
2018-Apr-05 03:22N 45°32' W 122°40'0 0.0
2018-Apr-05 02:58N 45°32' W 122°40'0 0.0
2018-Apr-05 02:28N 45°32' W 122°40'0 0.0
2018-Apr-05 01:58N 45°32' W 122°40'0 0.0
2018-Apr-05 01:28N 45°32' W 122°40'0 0.0
2018-Apr-05 00:58N 45°32' W 122°40'0 0.0
2018-Apr-05 00:28N 45°32' W 122°40'0 0.0
2018-Apr-04 23:58N 45°32' W 122°40'0 0.0
2018-Apr-04 23:28N 45°32' W 122°40'0 0.0
2018-Apr-04 22:58N 45°32' W 122°40'0 0.0
2018-Apr-04 22:28N 45°32' W 122°40'0 0.0
2018-Apr-04 21:58N 45°32' W 122°40'0 0.0
2018-Apr-04 21:28N 45°32' W 122°40'0 0.0
2018-Apr-04 20:58N 45°32' W 122°40'0 0.0
2018-Apr-04 20:28N 45°32' W 122°40'0 0.0
2018-Apr-04 19:58N 45°32' W 122°40'0 0.0
2018-Apr-04 19:28N 45°32' W 122°40'0 0.0
2018-Apr-04 18:58N 45°32' W 122°40'0 0.0
2018-Apr-04 18:28N 45°32' W 122°40'0 0.0
2018-Apr-04 17:58N 45°32' W 122°40'0 0.0
2018-Apr-04 17:28N 45°32' W 122°40'0 0.0
2018-Apr-04 16:58N 45°32' W 122°40'0 0.0
2018-Apr-04 16:28N 45°32' W 122°40'0 0.0
2018-Apr-04 15:58N 45°32' W 122°40'0 0.0
2018-Apr-04 15:28N 45°32' W 122°40'0 0.0
2018-Apr-04 14:58N 45°32' W 122°40'0 0.0
2018-Apr-04 14:28N 45°32' W 122°40'0 0.0
2018-Apr-04 13:58N 45°32' W 122°40'0 0.0
2018-Apr-04 13:28N 45°32' W 122°40'0 0.0
2018-Apr-04 12:58N 45°32' W 122°40'0 0.0
2018-Apr-04 12:28N 45°32' W 122°40'0 0.0
2018-Apr-04 11:58N 45°32' W 122°40'0 0.0
2018-Apr-04 11:28N 45°32' W 122°40'0 0.0
2018-Apr-04 10:58N 45°32' W 122°40'0 0.0
2018-Apr-04 10:28N 45°32' W 122°40'0 0.0
2018-Apr-04 09:58N 45°32' W 122°40'0 0.0
2018-Apr-04 09:28N 45°32' W 122°40'0 0.0
2018-Apr-04 08:58N 45°32' W 122°40'0 0.0
2018-Apr-04 08:28N 45°32' W 122°40'0 0.0
2018-Apr-04 07:58N 45°32' W 122°40'0 0.0
2018-Apr-04 07:28N 45°32' W 122°40'0 0.0
2018-Apr-04 06:58N 45°32' W 122°40'0 0.0
2018-Apr-04 06:28N 45°32' W 122°40'0 0.0
2018-Apr-04 05:58N 45°32' W 122°40'0 0.0
2018-Apr-04 05:28N 45°32' W 122°40'0 0.0
2018-Apr-04 04:58N 45°32' W 122°40'0 0.0
2018-Apr-04 04:28N 45°32' W 122°40'0 0.0
2018-Apr-04 03:58N 45°32' W 122°40'0 0.0
2018-Apr-04 03:28N 45°32' W 122°40'0 0.0
2018-Apr-04 02:58N 45°32' W 122°40'0 0.0
2018-Apr-04 02:28N 45°32' W 122°40'0 0.0
2018-Apr-04 01:57N 45°32' W 122°40'0 0.0
2018-Apr-04 01:28N 45°32' W 122°40'0 0.0
2018-Apr-04 00:58N 45°32' W 122°40'0 0.0
2018-Apr-04 00:28N 45°32' W 122°40'0 0.0
2018-Apr-03 23:58N 45°32' W 122°40'0 0.0
2018-Apr-03 23:28N 45°32' W 122°40'0 0.0
2018-Apr-03 23:01N 45°32' W 122°40'0 0.0
2018-Apr-03 22:28N 45°32' W 122°40'0 0.0
2018-Apr-03 22:01N 45°32' W 122°40'0 0.0
2018-Apr-03 21:28N 45°32' W 122°40'0 0.0
2018-Apr-03 20:58N 45°32' W 122°40'0 0.0
2018-Apr-03 20:28N 45°32' W 122°40'0 0.0
2018-Apr-03 19:57N 45°32' W 122°40'0 0.0
2018-Apr-03 19:28N 45°32' W 122°40'0 0.0
2018-Apr-03 18:58N 45°32' W 122°40'0 0.0
2018-Apr-03 18:28N 45°32' W 122°40'0 0.0
2018-Apr-03 17:58N 45°32' W 122°40'0 0.0
2018-Apr-03 17:28N 45°32' W 122°40'0 0.0
2018-Apr-03 16:57N 45°32' W 122°40'0 0.0
2018-Apr-03 16:27N 45°32' W 122°40'0 0.0
2018-Apr-03 16:01N 45°32' W 122°40'0 0.0
2018-Apr-03 15:27N 45°32' W 122°40'0 0.0
2018-Apr-03 14:57N 45°32' W 122°40'0 0.0
2018-Apr-03 14:28N 45°32' W 122°40'0 0.0
2018-Apr-03 13:58N 45°32' W 122°40'0 0.0
2018-Apr-03 13:30N 45°32' W 122°40'0 0.0
2018-Apr-03 12:58N 45°32' W 122°40'0 0.0
2018-Apr-03 12:31N 45°32' W 122°40'0 0.0
2018-Apr-03 12:01N 45°32' W 122°40'0 0.0
2018-Apr-03 11:27N 45°32' W 122°40'0 0.0
2018-Apr-03 10:57N 45°32' W 122°40'0 0.0
2018-Apr-03 10:27N 45°32' W 122°40'0 0.0
2018-Apr-03 09:58N 45°32' W 122°40'0 0.0
2018-Apr-03 09:27N 45°32' W 122°40'0 0.0
2018-Apr-03 08:59N 45°32' W 122°40'0 0.0
2018-Apr-03 08:28N 45°32' W 122°40'0 0.0
2018-Apr-03 07:58N 45°32' W 122°40'0 0.0
2018-Apr-03 07:28N 45°32' W 122°40'0 0.0
2018-Apr-03 06:58N 45°32' W 122°40'0 0.0
2018-Apr-03 06:27N 45°32' W 122°40'0 0.0
2018-Apr-03 05:58N 45°32' W 122°40'0 0.0
2018-Apr-03 05:30N 45°32' W 122°40'0 0.0
2018-Apr-03 05:00N 45°32' W 122°40'0 0.0
2018-Apr-03 04:27N 45°32' W 122°40'0 0.0
2018-Apr-03 04:01N 45°32' W 122°40'0 0.0
2018-Apr-03 03:27N 45°32' W 122°40'0 0.0
2018-Apr-03 02:57N 45°32' W 122°40'0 0.0
2018-Apr-03 02:27N 45°32' W 122°40'0 0.0
2018-Apr-03 02:00N 45°32' W 122°40'0 0.0
2018-Apr-03 01:27N 45°32' W 122°40'0 0.0
2018-Apr-03 01:01N 45°32' W 122°40'0 0.0
2018-Apr-03 00:30N 45°32' W 122°40'0 0.0
2018-Apr-03 00:00N 45°32' W 122°40'0 0.0
2018-Apr-02 23:28N 45°32' W 122°40'0 0.0
2018-Apr-02 22:57N 45°32' W 122°40'0 0.0
2018-Apr-02 22:27N 45°32' W 122°40'0 0.0
2018-Apr-02 22:01N 45°32' W 122°40'0 0.0
2018-Apr-02 21:30N 45°32' W 122°40'0 0.0
2018-Apr-02 20:57N 45°32' W 122°40'0 0.0
2018-Apr-02 20:27N 45°32' W 122°40'0 0.0
2018-Apr-02 20:00N 45°32' W 122°40'0 0.0
2018-Apr-02 19:30N 45°32' W 122°40'0 0.0
2018-Apr-02 18:57N 45°32' W 122°40'0 0.0
2018-Apr-02 18:31N 45°32' W 122°40'0 0.0
2018-Apr-02 17:57N 45°32' W 122°40'0 0.0
2018-Apr-02 17:27N 45°32' W 122°40'0 0.0
2018-Apr-02 16:57N 45°32' W 122°40'0 0.0
2018-Apr-02 16:30N 45°32' W 122°40'0 0.0
2018-Apr-02 15:57N 45°32' W 122°40'0 0.0
2018-Apr-02 15:30N 45°32' W 122°40'0 0.0
2018-Apr-02 15:01N 45°32' W 122°40'0 0.0
2018-Apr-02 14:27N 45°32' W 122°40'0 0.0
2018-Apr-02 13:57N 45°32' W 122°40'0 0.0
2018-Apr-02 13:31N 45°32' W 122°40'0 0.0
2018-Apr-02 12:57N 45°32' W 122°40'0 0.0
2018-Apr-02 12:30N 45°32' W 122°40'2 3.2
2018-Apr-02 12:01N 45°33' W 122°42'4 7.1
2018-Apr-02 11:30N 45°35' W 122°46'3 6.9
2018-Apr-02 11:00N 45°38' W 122°47'5 9.3
2018-Apr-02 10:30N 45°43' W 122°46'611.4
2018-Apr-02 10:01N 45°49' W 122°48'510.7
2018-Apr-02 09:30N 45°54' W 122°48'510.6
2018-Apr-02 09:00N 45°59' W 122°51'510.8
2018-Apr-02 08:30N 46°04' W 122°53'510.2
2018-Apr-02 08:00N 46°07' W 122°59'511.0
2018-Apr-02 07:30N 46°10' W 123°06'510.0
2018-Apr-02 07:00N 46°10' W 123°13'610.5
2018-Apr-02 06:24N 46°09' W 123°22'4 9.9
2018-Apr-02 06:01N 46°11' W 123°26'510.2
2018-Apr-02 05:31N 46°16' W 123°28'511.0
2018-Apr-02 05:01N 46°15' W 123°36'  

Dump ship's entire track history